sensor_id;sensor_type;location;lat;lon;timestamp;P1;durP1;ratioP1;P2;durP2;ratioP2
29940;SDS011;16801;53.562;10.038;2023-01-25T00:01:01;11.93;;;8.83;;
29940;SDS011;16801;53.562;10.038;2023-01-25T00:04:23;14.33;;;8.70;;
29940;SDS011;16801;53.562;10.038;2023-01-25T00:07:46;15.67;;;9.13;;
29940;SDS011;16801;53.562;10.038;2023-01-25T00:11:07;10.60;;;7.53;;
29940;SDS011;16801;53.562;10.038;2023-01-25T00:14:27;13.23;;;8.33;;
29940;SDS011;16801;53.562;10.038;2023-01-25T00:17:48;12.97;;;8.03;;
29940;SDS011;16801;53.562;10.038;2023-01-25T00:21:12;15.57;;;11.03;;
29940;SDS011;16801;53.562;10.038;2023-01-25T00:24:35;12.07;;;8.87;;
29940;SDS011;16801;53.562;10.038;2023-01-25T00:27:56;11.17;;;7.33;;
29940;SDS011;16801;53.562;10.038;2023-01-25T00:31:20;14.17;;;7.67;;
29940;SDS011;16801;53.562;10.038;2023-01-25T00:34:46;8.30;;;6.53;;
29940;SDS011;16801;53.562;10.038;2023-01-25T00:41:46;14.47;;;9.03;;
29940;SDS011;16801;53.562;10.038;2023-01-25T00:45:08;12.67;;;8.30;;
29940;SDS011;16801;53.562;10.038;2023-01-25T00:48:31;10.70;;;6.83;;
29940;SDS011;16801;53.562;10.038;2023-01-25T00:51:53;11.13;;;7.23;;
29940;SDS011;16801;53.562;10.038;2023-01-25T00:55:14;12.07;;;8.30;;
29940;SDS011;16801;53.562;10.038;2023-01-25T00:58:37;15.50;;;10.60;;
29940;SDS011;16801;53.562;10.038;2023-01-25T01:02:02;12.80;;;8.30;;
29940;SDS011;16801;53.562;10.038;2023-01-25T01:05:23;13.93;;;9.23;;
29940;SDS011;16801;53.562;10.038;2023-01-25T01:08:46;13.03;;;8.70;;
29940;SDS011;16801;53.562;10.038;2023-01-25T01:12:07;13.17;;;8.03;;
29940;SDS011;16801;53.562;10.038;2023-01-25T01:15:29;11.10;;;7.70;;
29940;SDS011;16801;53.562;10.038;2023-01-25T01:18:51;12.37;;;8.67;;
29940;SDS011;16801;53.562;10.038;2023-01-25T01:22:12;13.27;;;8.97;;
29940;SDS011;16801;53.562;10.038;2023-01-25T01:25:33;10.07;;;6.60;;
29940;SDS011;16801;53.562;10.038;2023-01-25T01:28:54;9.10;;;6.90;;
29940;SDS011;16801;53.562;10.038;2023-01-25T01:32:16;10.30;;;6.37;;
29940;SDS011;16801;53.562;10.038;2023-01-25T01:35:37;11.60;;;7.90;;
29940;SDS011;16801;53.562;10.038;2023-01-25T01:38:58;10.10;;;7.40;;
29940;SDS011;16801;53.562;10.038;2023-01-25T01:42:19;9.73;;;7.20;;
29940;SDS011;16801;53.562;10.038;2023-01-25T01:45:51;8.93;;;6.90;;
29940;SDS011;16801;53.562;10.038;2023-01-25T01:49:22;8.70;;;5.87;;
29940;SDS011;16801;53.562;10.038;2023-01-25T01:52:47;6.23;;;5.07;;
29940;SDS011;16801;53.562;10.038;2023-01-25T01:56:11;8.50;;;5.60;;
29940;SDS011;16801;53.562;10.038;2023-01-25T01:59:37;9.00;;;5.87;;
29940;SDS011;16801;53.562;10.038;2023-01-25T02:03:04;8.40;;;6.53;;
29940;SDS011;16801;53.562;10.038;2023-01-25T02:06:28;11.37;;;7.73;;
29940;SDS011;16801;53.562;10.038;2023-01-25T02:09:54;10.77;;;7.30;;
29940;SDS011;16801;53.562;10.038;2023-01-25T02:13:15;6.97;;;5.70;;
29940;SDS011;16801;53.562;10.038;2023-01-25T02:16:37;9.80;;;6.57;;
29940;SDS011;16801;53.562;10.038;2023-01-25T02:19:59;9.23;;;6.90;;
29940;SDS011;16801;53.562;10.038;2023-01-25T02:23:28;9.87;;;6.67;;
29940;SDS011;16801;53.562;10.038;2023-01-25T02:26:56;8.50;;;6.93;;
29940;SDS011;16801;53.562;10.038;2023-01-25T02:30:18;9.03;;;6.43;;
29940;SDS011;16801;53.562;10.038;2023-01-25T02:33:39;7.73;;;6.37;;
29940;SDS011;16801;53.562;10.038;2023-01-25T02:37:00;10.33;;;6.67;;
29940;SDS011;16801;53.562;10.038;2023-01-25T02:40:21;7.23;;;5.53;;
29940;SDS011;16801;53.562;10.038;2023-01-25T02:43:44;8.33;;;5.73;;
29940;SDS011;16801;53.562;10.038;2023-01-25T02:47:05;11.90;;;6.00;;
29940;SDS011;16801;53.562;10.038;2023-01-25T02:50:25;9.37;;;6.23;;
29940;SDS011;16801;53.562;10.038;2023-01-25T02:53:46;7.97;;;5.97;;
29940;SDS011;16801;53.562;10.038;2023-01-25T02:57:08;8.33;;;6.17;;
29940;SDS011;16801;53.562;10.038;2023-01-25T03:00:36;10.27;;;6.07;;
29940;SDS011;16801;53.562;10.038;2023-01-25T03:03:57;10.33;;;8.33;;
29940;SDS011;16801;53.562;10.038;2023-01-25T03:07:18;8.50;;;5.87;;
29940;SDS011;16801;53.562;10.038;2023-01-25T03:10:39;11.77;;;7.07;;
29940;SDS011;16801;53.562;10.038;2023-01-25T03:14:00;6.93;;;5.60;;
29940;SDS011;16801;53.562;10.038;2023-01-25T03:17:23;9.93;;;7.10;;
29940;SDS011;16801;53.562;10.038;2023-01-25T03:20:44;16.90;;;5.93;;
29940;SDS011;16801;53.562;10.038;2023-01-25T03:24:05;11.63;;;7.03;;
29940;SDS011;16801;53.562;10.038;2023-01-25T03:27:31;9.17;;;7.77;;
29940;SDS011;16801;53.562;10.038;2023-01-25T03:30:59;10.63;;;6.60;;
29940;SDS011;16801;53.562;10.038;2023-01-25T03:34:22;6.90;;;5.43;;
29940;SDS011;16801;53.562;10.038;2023-01-25T03:37:43;13.13;;;8.03;;
29940;SDS011;16801;53.562;10.038;2023-01-25T03:41:04;14.63;;;7.50;;
29940;SDS011;16801;53.562;10.038;2023-01-25T03:44:27;11.13;;;5.90;;
29940;SDS011;16801;53.562;10.038;2023-01-25T03:47:49;12.30;;;6.90;;
29940;SDS011;16801;53.562;10.038;2023-01-25T03:51:11;15.03;;;8.43;;
29940;SDS011;16801;53.562;10.038;2023-01-25T03:54:32;8.37;;;6.67;;
29940;SDS011;16801;53.562;10.038;2023-01-25T03:57:54;9.10;;;6.40;;
29940;SDS011;16801;53.562;10.038;2023-01-25T04:01:15;11.87;;;6.97;;
29940;SDS011;16801;53.562;10.038;2023-01-25T04:04:36;10.27;;;6.40;;
29940;SDS011;16801;53.562;10.038;2023-01-25T04:07:58;12.70;;;7.07;;
29940;SDS011;16801;53.562;10.038;2023-01-25T04:11:29;13.03;;;6.87;;
29940;SDS011;16801;53.562;10.038;2023-01-25T04:14:50;13.87;;;7.10;;
29940;SDS011;16801;53.562;10.038;2023-01-25T04:18:15;11.10;;;6.90;;
29940;SDS011;16801;53.562;10.038;2023-01-25T04:21:36;16.07;;;8.30;;
29940;SDS011;16801;53.562;10.038;2023-01-25T04:24:58;11.03;;;8.50;;
29940;SDS011;16801;53.562;10.038;2023-01-25T04:28:20;11.13;;;6.40;;
29940;SDS011;16801;53.562;10.038;2023-01-25T04:31:41;14.13;;;9.53;;
29940;SDS011;16801;53.562;10.038;2023-01-25T04:35:04;9.07;;;7.27;;
29940;SDS011;16801;53.562;10.038;2023-01-25T04:38:25;11.57;;;7.80;;
29940;SDS011;16801;53.562;10.038;2023-01-25T04:41:48;10.93;;;7.83;;
29940;SDS011;16801;53.562;10.038;2023-01-25T04:45:09;11.93;;;8.77;;
29940;SDS011;16801;53.562;10.038;2023-01-25T04:48:31;8.27;;;6.43;;
29940;SDS011;16801;53.562;10.038;2023-01-25T04:51:55;9.37;;;5.20;;
29940;SDS011;16801;53.562;10.038;2023-01-25T04:55:17;8.63;;;6.30;;
29940;SDS011;16801;53.562;10.038;2023-01-25T04:58:39;13.83;;;7.43;;
29940;SDS011;16801;53.562;10.038;2023-01-25T05:02:00;7.10;;;5.63;;
29940;SDS011;16801;53.562;10.038;2023-01-25T05:05:21;9.47;;;6.97;;
29940;SDS011;16801;53.562;10.038;2023-01-25T05:08:43;9.83;;;7.47;;
29940;SDS011;16801;53.562;10.038;2023-01-25T05:12:05;6.87;;;4.63;;
29940;SDS011;16801;53.562;10.038;2023-01-25T05:15:42;9.90;;;6.20;;
29940;SDS011;16801;53.562;10.038;2023-01-25T05:19:03;7.13;;;5.30;;
29940;SDS011;16801;53.562;10.038;2023-01-25T05:22:31;6.97;;;5.50;;
29940;SDS011;16801;53.562;10.038;2023-01-25T05:25:52;8.57;;;6.00;;
29940;SDS011;16801;53.562;10.038;2023-01-25T05:29:32;7.37;;;6.63;;
29940;SDS011;16801;53.562;10.038;2023-01-25T05:32:59;10.23;;;5.40;;
29940;SDS011;16801;53.562;10.038;2023-01-25T05:36:20;15.17;;;6.10;;
29940;SDS011;16801;53.562;10.038;2023-01-25T05:39:41;14.17;;;6.67;;
29940;SDS011;16801;53.562;10.038;2023-01-25T05:43:02;7.93;;;6.67;;
29940;SDS011;16801;53.562;10.038;2023-01-25T05:46:25;10.47;;;6.53;;
29940;SDS011;16801;53.562;10.038;2023-01-25T05:49:47;6.40;;;5.80;;
29940;SDS011;16801;53.562;10.038;2023-01-25T05:53:16;8.63;;;6.57;;
29940;SDS011;16801;53.562;10.038;2023-01-25T05:56:38;8.37;;;7.30;;
29940;SDS011;16801;53.562;10.038;2023-01-25T06:00:01;10.57;;;6.80;;
29940;SDS011;16801;53.562;10.038;2023-01-25T06:03:33;9.87;;;7.57;;
29940;SDS011;16801;53.562;10.038;2023-01-25T06:06:56;8.17;;;6.17;;
29940;SDS011;16801;53.562;10.038;2023-01-25T06:10:17;10.50;;;7.67;;
29940;SDS011;16801;53.562;10.038;2023-01-25T06:13:41;9.53;;;7.17;;
29940;SDS011;16801;53.562;10.038;2023-01-25T06:17:04;8.57;;;6.97;;
29940;SDS011;16801;53.562;10.038;2023-01-25T06:20:48;8.43;;;6.37;;
29940;SDS011;16801;53.562;10.038;2023-01-25T06:24:10;10.20;;;7.33;;
29940;SDS011;16801;53.562;10.038;2023-01-25T06:27:31;10.47;;;6.70;;
29940;SDS011;16801;53.562;10.038;2023-01-25T06:30:52;8.17;;;6.07;;
29940;SDS011;16801;53.562;10.038;2023-01-25T06:34:12;9.60;;;7.03;;
29940;SDS011;16801;53.562;10.038;2023-01-25T06:37:33;10.13;;;6.67;;
29940;SDS011;16801;53.562;10.038;2023-01-25T06:40:58;10.17;;;6.50;;
29940;SDS011;16801;53.562;10.038;2023-01-25T06:44:20;10.97;;;7.67;;
29940;SDS011;16801;53.562;10.038;2023-01-25T06:47:41;10.57;;;6.70;;
29940;SDS011;16801;53.562;10.038;2023-01-25T06:51:02;8.57;;;6.30;;
29940;SDS011;16801;53.562;10.038;2023-01-25T06:54:24;9.03;;;7.27;;
29940;SDS011;16801;53.562;10.038;2023-01-25T06:57:46;9.30;;;7.07;;
29940;SDS011;16801;53.562;10.038;2023-01-25T07:01:10;10.60;;;5.80;;
29940;SDS011;16801;53.562;10.038;2023-01-25T07:04:33;10.67;;;8.17;;
29940;SDS011;16801;53.562;10.038;2023-01-25T07:07:54;9.90;;;6.87;;
29940;SDS011;16801;53.562;10.038;2023-01-25T07:11:15;9.35;;;7.35;;
29940;SDS011;16801;53.562;10.038;2023-01-25T07:14:38;10.00;;;9.00;;
29940;SDS011;16801;53.562;10.038;2023-01-25T07:17:59;9.90;;;7.17;;
29940;SDS011;16801;53.562;10.038;2023-01-25T07:21:20;9.27;;;6.17;;
29940;SDS011;16801;53.562;10.038;2023-01-25T07:24:42;9.30;;;6.47;;
29940;SDS011;16801;53.562;10.038;2023-01-25T07:28:08;9.57;;;5.90;;
29940;SDS011;16801;53.562;10.038;2023-01-25T07:31:30;9.90;;;7.30;;
29940;SDS011;16801;53.562;10.038;2023-01-25T07:34:51;6.80;;;4.73;;
29940;SDS011;16801;53.562;10.038;2023-01-25T07:38:12;7.57;;;6.83;;
29940;SDS011;16801;53.562;10.038;2023-01-25T07:41:32;6.97;;;6.20;;
29940;SDS011;16801;53.562;10.038;2023-01-25T07:44:54;7.40;;;5.27;;
29940;SDS011;16801;53.562;10.038;2023-01-25T07:48:17;6.90;;;5.77;;
29940;SDS011;16801;53.562;10.038;2023-01-25T07:51:39;8.47;;;6.43;;
29940;SDS011;16801;53.562;10.038;2023-01-25T07:55:00;7.00;;;6.30;;
29940;SDS011;16801;53.562;10.038;2023-01-25T07:58:21;8.97;;;7.20;;
29940;SDS011;16801;53.562;10.038;2023-01-25T08:01:41;11.27;;;7.97;;
29940;SDS011;16801;53.562;10.038;2023-01-25T08:05:04;10.37;;;6.70;;
29940;SDS011;16801;53.562;10.038;2023-01-25T08:08:25;9.63;;;5.10;;
29940;SDS011;16801;53.562;10.038;2023-01-25T08:11:47;8.30;;;5.90;;
29940;SDS011;16801;53.562;10.038;2023-01-25T08:15:08;8.97;;;6.60;;
29940;SDS011;16801;53.562;10.038;2023-01-25T08:18:30;9.13;;;6.43;;
29940;SDS011;16801;53.562;10.038;2023-01-25T08:21:53;8.37;;;7.50;;
29940;SDS011;16801;53.562;10.038;2023-01-25T08:25:14;10.90;;;7.10;;
29940;SDS011;16801;53.562;10.038;2023-01-25T08:28:35;11.70;;;7.60;;
29940;SDS011;16801;53.562;10.038;2023-01-25T08:31:56;10.40;;;7.37;;
29940;SDS011;16801;53.562;10.038;2023-01-25T08:35:17;10.43;;;9.03;;
29940;SDS011;16801;53.562;10.038;2023-01-25T08:38:39;10.37;;;5.83;;
29940;SDS011;16801;53.562;10.038;2023-01-25T08:42:03;11.87;;;8.23;;
29940;SDS011;16801;53.562;10.038;2023-01-25T08:45:25;10.47;;;6.83;;
29940;SDS011;16801;53.562;10.038;2023-01-25T08:48:46;12.17;;;8.43;;
29940;SDS011;16801;53.562;10.038;2023-01-25T08:52:06;19.50;;;10.50;;
29940;SDS011;16801;53.562;10.038;2023-01-25T08:55:29;9.03;;;7.73;;
29940;SDS011;16801;53.562;10.038;2023-01-25T08:58:50;11.30;;;7.53;;
29940;SDS011;16801;53.562;10.038;2023-01-25T09:02:11;10.87;;;8.63;;
29940;SDS011;16801;53.562;10.038;2023-01-25T09:05:32;11.60;;;8.20;;
29940;SDS011;16801;53.562;10.038;2023-01-25T09:08:53;8.60;;;7.73;;
29940;SDS011;16801;53.562;10.038;2023-01-25T09:12:15;14.37;;;7.93;;
29940;SDS011;16801;53.562;10.038;2023-01-25T09:15:37;12.40;;;8.43;;
29940;SDS011;16801;53.562;10.038;2023-01-25T09:18:59;12.87;;;9.03;;
29940;SDS011;16801;53.562;10.038;2023-01-25T09:22:21;13.50;;;9.87;;
29940;SDS011;16801;53.562;10.038;2023-01-25T09:25:42;12.90;;;9.40;;
29940;SDS011;16801;53.562;10.038;2023-01-25T09:29:04;11.73;;;8.27;;
29940;SDS011;16801;53.562;10.038;2023-01-25T09:32:26;12.07;;;10.07;;
29940;SDS011;16801;53.562;10.038;2023-01-25T09:35:48;11.40;;;10.07;;
29940;SDS011;16801;53.562;10.038;2023-01-25T09:39:09;21.50;;;12.17;;
29940;SDS011;16801;53.562;10.038;2023-01-25T09:42:38;16.67;;;9.93;;
29940;SDS011;16801;53.562;10.038;2023-01-25T09:46:12;15.60;;;9.73;;
29940;SDS011;16801;53.562;10.038;2023-01-25T09:49:44;12.00;;;9.30;;
29940;SDS011;16801;53.562;10.038;2023-01-25T09:53:22;13.27;;;10.03;;
29940;SDS011;16801;53.562;10.038;2023-01-25T09:56:50;16.20;;;11.40;;
29940;SDS011;16801;53.562;10.038;2023-01-25T10:00:13;13.40;;;9.10;;
29940;SDS011;16801;53.562;10.038;2023-01-25T10:03:43;15.20;;;10.20;;
29940;SDS011;16801;53.562;10.038;2023-01-25T10:07:10;14.10;;;9.20;;
29940;SDS011;16801;53.562;10.038;2023-01-25T10:10:39;21.43;;;10.20;;
29940;SDS011;16801;53.562;10.038;2023-01-25T10:14:01;17.13;;;11.27;;
29940;SDS011;16801;53.562;10.038;2023-01-25T10:17:30;16.60;;;10.47;;
29940;SDS011;16801;53.562;10.038;2023-01-25T10:20:57;13.13;;;11.10;;
29940;SDS011;16801;53.562;10.038;2023-01-25T10:24:40;18.27;;;11.93;;
29940;SDS011;16801;53.562;10.038;2023-01-25T10:28:16;14.83;;;10.33;;
29940;SDS011;16801;53.562;10.038;2023-01-25T10:31:46;15.40;;;12.17;;
29940;SDS011;16801;53.562;10.038;2023-01-25T10:35:13;15.60;;;10.70;;
29940;SDS011;16801;53.562;10.038;2023-01-25T10:38:38;19.43;;;11.07;;
29940;SDS011;16801;53.562;10.038;2023-01-25T10:42:02;17.20;;;10.90;;
29940;SDS011;16801;53.562;10.038;2023-01-25T10:45:25;22.87;;;13.10;;
29940;SDS011;16801;53.562;10.038;2023-01-25T10:48:46;16.27;;;10.43;;
29940;SDS011;16801;53.562;10.038;2023-01-25T10:52:11;18.47;;;12.00;;
29940;SDS011;16801;53.562;10.038;2023-01-25T10:55:34;19.07;;;12.33;;
29940;SDS011;16801;53.562;10.038;2023-01-25T10:59:04;16.87;;;11.97;;
29940;SDS011;16801;53.562;10.038;2023-01-25T11:02:38;17.87;;;14.77;;
29940;SDS011;16801;53.562;10.038;2023-01-25T11:06:00;19.40;;;12.07;;
29940;SDS011;16801;53.562;10.038;2023-01-25T11:09:29;21.80;;;12.60;;
29940;SDS011;16801;53.562;10.038;2023-01-25T11:16:43;20.90;;;13.53;;
29940;SDS011;16801;53.562;10.038;2023-01-25T11:20:10;23.23;;;13.37;;
29940;SDS011;16801;53.562;10.038;2023-01-25T11:23:36;18.90;;;12.30;;
29940;SDS011;16801;53.562;10.038;2023-01-25T11:27:10;20.67;;;13.17;;
29940;SDS011;16801;53.562;10.038;2023-01-25T11:30:34;20.23;;;12.50;;
29940;SDS011;16801;53.562;10.038;2023-01-25T11:33:55;19.57;;;11.80;;
29940;SDS011;16801;53.562;10.038;2023-01-25T11:41:04;19.63;;;12.90;;
29940;SDS011;16801;53.562;10.038;2023-01-25T11:44:40;16.20;;;10.77;;
29940;SDS011;16801;53.562;10.038;2023-01-25T11:48:26;16.30;;;11.73;;
29940;SDS011;16801;53.562;10.038;2023-01-25T11:51:55;16.57;;;11.80;;
29940;SDS011;16801;53.562;10.038;2023-01-25T11:55:28;17.57;;;11.50;;
29940;SDS011;16801;53.562;10.038;2023-01-25T11:59:00;18.23;;;12.53;;
29940;SDS011;16801;53.562;10.038;2023-01-25T12:02:52;14.97;;;10.80;;
29940;SDS011;16801;53.562;10.038;2023-01-25T12:06:28;16.40;;;10.00;;
29940;SDS011;16801;53.562;10.038;2023-01-25T12:10:00;19.30;;;12.80;;
29940;SDS011;16801;53.562;10.038;2023-01-25T12:13:30;18.40;;;9.97;;
29940;SDS011;16801;53.562;10.038;2023-01-25T12:17:03;15.03;;;10.70;;
29940;SDS011;16801;53.562;10.038;2023-01-25T12:20:42;16.90;;;11.07;;
29940;SDS011;16801;53.562;10.038;2023-01-25T12:24:27;18.20;;;12.47;;
29940;SDS011;16801;53.562;10.038;2023-01-25T12:28:04;21.07;;;11.47;;
29940;SDS011;16801;53.562;10.038;2023-01-25T12:31:33;15.87;;;12.00;;
29940;SDS011;16801;53.562;10.038;2023-01-25T12:35:02;15.03;;;9.13;;
29940;SDS011;16801;53.562;10.038;2023-01-25T12:38:38;13.63;;;9.83;;
29940;SDS011;16801;53.562;10.038;2023-01-25T12:42:06;17.43;;;11.47;;
29940;SDS011;16801;53.562;10.038;2023-01-25T12:45:36;15.20;;;9.30;;
29940;SDS011;16801;53.562;10.038;2023-01-25T12:49:01;12.30;;;9.00;;
29940;SDS011;16801;53.562;10.038;2023-01-25T12:52:38;12.37;;;9.17;;
29940;SDS011;16801;53.562;10.038;2023-01-25T12:56:03;15.47;;;11.60;;
29940;SDS011;16801;53.562;10.038;2023-01-25T12:59:29;16.27;;;11.27;;
29940;SDS011;16801;53.562;10.038;2023-01-25T13:03:09;15.97;;;10.70;;
29940;SDS011;16801;53.562;10.038;2023-01-25T13:06:38;12.90;;;8.87;;
29940;SDS011;16801;53.562;10.038;2023-01-25T13:10:05;14.10;;;8.80;;
29940;SDS011;16801;53.562;10.038;2023-01-25T13:13:35;14.47;;;9.17;;
29940;SDS011;16801;53.562;10.038;2023-01-25T13:17:10;15.27;;;9.67;;
29940;SDS011;16801;53.562;10.038;2023-01-25T13:20:48;15.73;;;11.03;;
29940;SDS011;16801;53.562;10.038;2023-01-25T13:24:15;16.20;;;10.57;;
29940;SDS011;16801;53.562;10.038;2023-01-25T13:27:38;18.73;;;8.70;;
29940;SDS011;16801;53.562;10.038;2023-01-25T13:30:59;16.37;;;10.10;;
29940;SDS011;16801;53.562;10.038;2023-01-25T13:38:30;14.50;;;9.23;;
29940;SDS011;16801;53.562;10.038;2023-01-25T13:41:57;14.63;;;10.93;;
29940;SDS011;16801;53.562;10.038;2023-01-25T13:45:18;15.57;;;9.70;;
29940;SDS011;16801;53.562;10.038;2023-01-25T13:48:44;14.37;;;8.17;;
29940;SDS011;16801;53.562;10.038;2023-01-25T13:52:11;17.37;;;10.53;;
29940;SDS011;16801;53.562;10.038;2023-01-25T13:55:38;14.20;;;9.50;;
29940;SDS011;16801;53.562;10.038;2023-01-25T13:59:00;14.90;;;11.03;;
29940;SDS011;16801;53.562;10.038;2023-01-25T14:02:22;14.33;;;9.50;;
29940;SDS011;16801;53.562;10.038;2023-01-25T14:05:47;11.50;;;10.13;;
29940;SDS011;16801;53.562;10.038;2023-01-25T14:09:11;18.27;;;12.77;;
29940;SDS011;16801;53.562;10.038;2023-01-25T14:12:36;15.80;;;10.30;;
29940;SDS011;16801;53.562;10.038;2023-01-25T14:16:00;19.00;;;12.03;;
29940;SDS011;16801;53.562;10.038;2023-01-25T14:19:24;15.33;;;9.23;;
29940;SDS011;16801;53.562;10.038;2023-01-25T14:22:47;15.90;;;11.10;;
29940;SDS011;16801;53.562;10.038;2023-01-25T14:26:17;15.97;;;10.70;;
29940;SDS011;16801;53.562;10.038;2023-01-25T14:29:40;13.87;;;8.87;;
29940;SDS011;16801;53.562;10.038;2023-01-25T14:33:02;18.57;;;13.33;;
29940;SDS011;16801;53.562;10.038;2023-01-25T14:36:35;14.53;;;9.87;;
29940;SDS011;16801;53.562;10.038;2023-01-25T14:39:56;17.30;;;11.47;;
29940;SDS011;16801;53.562;10.038;2023-01-25T14:43:18;16.57;;;10.80;;
29940;SDS011;16801;53.562;10.038;2023-01-25T14:46:40;25.27;;;13.70;;
29940;SDS011;16801;53.562;10.038;2023-01-25T14:53:54;18.20;;;13.07;;
29940;SDS011;16801;53.562;10.038;2023-01-25T14:57:25;16.70;;;10.10;;
29940;SDS011;16801;53.562;10.038;2023-01-25T15:00:53;19.53;;;12.27;;
29940;SDS011;16801;53.562;10.038;2023-01-25T15:04:15;17.20;;;10.13;;
29940;SDS011;16801;53.562;10.038;2023-01-25T15:07:41;27.47;;;13.57;;
29940;SDS011;16801;53.562;10.038;2023-01-25T15:11:03;22.23;;;12.17;;
29940;SDS011;16801;53.562;10.038;2023-01-25T15:14:45;21.53;;;12.70;;
29940;SDS011;16801;53.562;10.038;2023-01-25T15:22:06;21.23;;;12.53;;
29940;SDS011;16801;53.562;10.038;2023-01-25T15:25:28;18.77;;;10.57;;
29940;SDS011;16801;53.562;10.038;2023-01-25T15:28:50;19.57;;;12.67;;
29940;SDS011;16801;53.562;10.038;2023-01-25T15:32:15;23.60;;;15.43;;
29940;SDS011;16801;53.562;10.038;2023-01-25T15:35:40;19.70;;;12.70;;
29940;SDS011;16801;53.562;10.038;2023-01-25T15:39:01;18.30;;;12.40;;
29940;SDS011;16801;53.562;10.038;2023-01-25T15:42:22;16.53;;;11.87;;
29940;SDS011;16801;53.562;10.038;2023-01-25T15:45:44;23.10;;;14.30;;
29940;SDS011;16801;53.562;10.038;2023-01-25T15:49:07;20.53;;;12.13;;
29940;SDS011;16801;53.562;10.038;2023-01-25T15:52:33;24.07;;;14.07;;
29940;SDS011;16801;53.562;10.038;2023-01-25T15:55:54;22.53;;;13.77;;
29940;SDS011;16801;53.562;10.038;2023-01-25T15:59:18;22.17;;;14.80;;
29940;SDS011;16801;53.562;10.038;2023-01-25T16:02:38;23.00;;;13.73;;
29940;SDS011;16801;53.562;10.038;2023-01-25T16:06:00;21.90;;;11.93;;
29940;SDS011;16801;53.562;10.038;2023-01-25T16:09:23;21.40;;;12.70;;
29940;SDS011;16801;53.562;10.038;2023-01-25T16:12:47;19.03;;;11.47;;
29940;SDS011;16801;53.562;10.038;2023-01-25T16:16:09;18.87;;;11.77;;
29940;SDS011;16801;53.562;10.038;2023-01-25T16:19:37;22.83;;;11.47;;
29940;SDS011;16801;53.562;10.038;2023-01-25T16:22:58;19.40;;;11.47;;
29940;SDS011;16801;53.562;10.038;2023-01-25T16:26:21;17.47;;;10.80;;
29940;SDS011;16801;53.562;10.038;2023-01-25T16:29:45;25.27;;;11.03;;
29940;SDS011;16801;53.562;10.038;2023-01-25T16:33:06;16.60;;;9.77;;
29940;SDS011;16801;53.562;10.038;2023-01-25T16:36:27;19.97;;;11.73;;
29940;SDS011;16801;53.562;10.038;2023-01-25T16:39:49;16.40;;;9.27;;
29940;SDS011;16801;53.562;10.038;2023-01-25T16:43:13;14.80;;;9.60;;
29940;SDS011;16801;53.562;10.038;2023-01-25T16:46:33;15.00;;;9.27;;
29940;SDS011;16801;53.562;10.038;2023-01-25T16:49:54;26.43;;;15.33;;
29940;SDS011;16801;53.562;10.038;2023-01-25T16:53:15;20.90;;;9.40;;
29940;SDS011;16801;53.562;10.038;2023-01-25T16:56:36;15.93;;;7.67;;
29940;SDS011;16801;53.562;10.038;2023-01-25T16:59:58;12.43;;;9.17;;
29940;SDS011;16801;53.562;10.038;2023-01-25T17:03:19;13.50;;;9.37;;
29940;SDS011;16801;53.562;10.038;2023-01-25T17:06:41;16.40;;;9.47;;
29940;SDS011;16801;53.562;10.038;2023-01-25T17:10:03;14.77;;;9.40;;
29940;SDS011;16801;53.562;10.038;2023-01-25T17:13:26;19.50;;;10.23;;
29940;SDS011;16801;53.562;10.038;2023-01-25T17:16:48;14.30;;;9.37;;
29940;SDS011;16801;53.562;10.038;2023-01-25T17:20:11;12.70;;;9.00;;
29940;SDS011;16801;53.562;10.038;2023-01-25T17:23:33;16.80;;;10.97;;
29940;SDS011;16801;53.562;10.038;2023-01-25T17:26:55;12.73;;;8.53;;
29940;SDS011;16801;53.562;10.038;2023-01-25T17:30:16;15.80;;;10.30;;
29940;SDS011;16801;53.562;10.038;2023-01-25T17:33:39;20.37;;;11.90;;
29940;SDS011;16801;53.562;10.038;2023-01-25T17:37:00;15.30;;;8.50;;
29940;SDS011;16801;53.562;10.038;2023-01-25T17:40:20;13.67;;;9.77;;
29940;SDS011;16801;53.562;10.038;2023-01-25T17:43:41;11.70;;;8.60;;
29940;SDS011;16801;53.562;10.038;2023-01-25T17:47:02;14.00;;;8.83;;
29940;SDS011;16801;53.562;10.038;2023-01-25T17:50:24;17.80;;;12.37;;
29940;SDS011;16801;53.562;10.038;2023-01-25T17:53:45;13.70;;;8.00;;
29940;SDS011;16801;53.562;10.038;2023-01-25T17:57:06;23.83;;;10.17;;
29940;SDS011;16801;53.562;10.038;2023-01-25T18:00:28;18.47;;;11.03;;
29940;SDS011;16801;53.562;10.038;2023-01-25T18:03:50;20.03;;;11.73;;
29940;SDS011;16801;53.562;10.038;2023-01-25T18:07:14;17.80;;;11.23;;
29940;SDS011;16801;53.562;10.038;2023-01-25T18:10:35;19.47;;;11.63;;
29940;SDS011;16801;53.562;10.038;2023-01-25T18:13:58;22.00;;;13.37;;
29940;SDS011;16801;53.562;10.038;2023-01-25T18:17:21;17.90;;;12.87;;
29940;SDS011;16801;53.562;10.038;2023-01-25T18:20:42;25.73;;;15.17;;
29940;SDS011;16801;53.562;10.038;2023-01-25T18:24:05;16.07;;;11.00;;
29940;SDS011;16801;53.562;10.038;2023-01-25T18:27:42;23.00;;;15.40;;
29940;SDS011;16801;53.562;10.038;2023-01-25T18:31:04;18.97;;;11.87;;
29940;SDS011;16801;53.562;10.038;2023-01-25T18:34:25;15.97;;;11.37;;
29940;SDS011;16801;53.562;10.038;2023-01-25T18:37:46;19.63;;;12.13;;
29940;SDS011;16801;53.562;10.038;2023-01-25T18:41:08;22.30;;;14.23;;
29940;SDS011;16801;53.562;10.038;2023-01-25T18:44:29;24.53;;;13.47;;
29940;SDS011;16801;53.562;10.038;2023-01-25T18:47:50;20.33;;;11.70;;
29940;SDS011;16801;53.562;10.038;2023-01-25T18:51:12;20.73;;;12.93;;
29940;SDS011;16801;53.562;10.038;2023-01-25T18:54:36;23.90;;;13.63;;
29940;SDS011;16801;53.562;10.038;2023-01-25T18:57:58;28.07;;;14.87;;
29940;SDS011;16801;53.562;10.038;2023-01-25T19:01:23;31.23;;;16.83;;
29940;SDS011;16801;53.562;10.038;2023-01-25T19:04:44;31.30;;;16.47;;
29940;SDS011;16801;53.562;10.038;2023-01-25T19:08:05;29.60;;;17.30;;
29940;SDS011;16801;53.562;10.038;2023-01-25T19:11:25;32.13;;;18.20;;
29940;SDS011;16801;53.562;10.038;2023-01-25T19:14:48;29.43;;;16.87;;
29940;SDS011;16801;53.562;10.038;2023-01-25T19:18:09;30.37;;;17.03;;
29940;SDS011;16801;53.562;10.038;2023-01-25T19:21:30;32.93;;;17.27;;
29940;SDS011;16801;53.562;10.038;2023-01-25T19:24:50;30.77;;;16.53;;
29940;SDS011;16801;53.562;10.038;2023-01-25T19:28:11;25.63;;;14.43;;
29940;SDS011;16801;53.562;10.038;2023-01-25T19:31:33;27.33;;;14.90;;
29940;SDS011;16801;53.562;10.038;2023-01-25T19:34:55;22.40;;;13.03;;
29940;SDS011;16801;53.562;10.038;2023-01-25T19:38:16;21.67;;;13.03;;
29940;SDS011;16801;53.562;10.038;2023-01-25T19:41:37;24.40;;;16.17;;
29940;SDS011;16801;53.562;10.038;2023-01-25T19:44:58;26.00;;;18.03;;
29940;SDS011;16801;53.562;10.038;2023-01-25T19:48:22;27.60;;;17.87;;
29940;SDS011;16801;53.562;10.038;2023-01-25T19:51:43;25.20;;;14.93;;
29940;SDS011;16801;53.562;10.038;2023-01-25T19:55:10;33.57;;;16.90;;
29940;SDS011;16801;53.562;10.038;2023-01-25T19:58:31;29.47;;;16.57;;
29940;SDS011;16801;53.562;10.038;2023-01-25T20:01:52;30.97;;;18.50;;
29940;SDS011;16801;53.562;10.038;2023-01-25T20:05:14;29.03;;;15.43;;
29940;SDS011;16801;53.562;10.038;2023-01-25T20:08:36;25.43;;;13.83;;
29940;SDS011;16801;53.562;10.038;2023-01-25T20:11:58;19.80;;;14.90;;